createdAt,value
2018-09-20T00:00:05.044Z,99.90
2018-09-20T00:02:32.338Z,99.90
2018-09-20T00:04:59.552Z,99.90
2018-09-20T00:07:26.782Z,99.90
2018-09-20T00:09:54.022Z,99.90
2018-09-20T00:12:21.325Z,99.90
2018-09-20T00:14:48.572Z,99.90
2018-09-20T00:17:15.808Z,99.90
2018-09-20T00:19:43.112Z,99.90
2018-09-20T00:22:10.404Z,99.90
2018-09-20T00:24:37.680Z,99.90
2018-09-20T00:27:04.925Z,99.90
2018-09-20T00:29:33.086Z,99.90
2018-09-20T00:32:00.328Z,99.90
2018-09-20T00:34:27.689Z,99.90
2018-09-20T00:36:54.901Z,99.90
2018-09-20T00:39:22.115Z,99.90
2018-09-20T00:41:49.384Z,99.90
2018-09-20T00:44:16.621Z,99.90
2018-09-20T00:46:43.856Z,99.90
2018-09-20T00:49:11.079Z,99.90
2018-09-20T00:51:38.280Z,99.90
2018-09-20T00:54:05.514Z,99.90
2018-09-20T00:56:32.712Z,99.90
2018-09-20T00:58:59.925Z,99.90
2018-09-20T01:01:27.176Z,99.90
2018-09-20T01:03:54.385Z,99.90
2018-09-20T01:06:22.204Z,99.90
2018-09-20T01:08:49.653Z,99.90
2018-09-20T01:11:16.868Z,99.90
2018-09-20T01:13:44.059Z,99.90
2018-09-20T01:16:11.274Z,99.90
2018-09-20T01:18:38.480Z,99.90
2018-09-20T01:21:05.738Z,99.90
2018-09-20T01:23:32.980Z,99.90
2018-09-20T01:26:00.230Z,99.90
2018-09-20T01:28:27.440Z,99.90
2018-09-20T01:30:54.637Z,99.90
2018-09-20T01:33:21.836Z,99.90
2018-09-20T01:35:49.056Z,99.90
2018-09-20T01:38:16.276Z,99.90
2018-09-20T01:40:44.657Z,99.90
2018-09-20T01:43:11.921Z,99.90
2018-09-20T01:45:39.181Z,99.90
2018-09-20T01:48:06.624Z,99.90
2018-09-20T01:50:33.848Z,99.90
2018-09-20T01:53:01.065Z,99.90
2018-09-20T01:55:28.306Z,99.90
2018-09-20T01:57:56.598Z,99.90
2018-09-20T02:00:23.860Z,99.90
2018-09-20T02:02:51.128Z,99.90
2018-09-20T02:05:18.373Z,99.90
2018-09-20T02:07:45.678Z,99.90
2018-09-20T02:10:12.904Z,99.90
2018-09-20T02:12:40.265Z,99.90
2018-09-20T02:15:07.517Z,99.90
2018-09-20T02:17:34.753Z,99.90
2018-09-20T02:20:02.008Z,99.90
2018-09-20T02:22:29.228Z,99.90
2018-09-20T02:24:56.434Z,99.90
2018-09-20T02:27:23.648Z,99.90
2018-09-20T02:29:50.912Z,99.90
2018-09-20T02:32:18.136Z,99.90
2018-09-20T02:34:45.352Z,99.90
2018-09-20T02:37:12.575Z,99.90
2018-09-20T02:39:39.767Z,99.90
2018-09-20T02:42:07.046Z,99.90
2018-09-20T02:44:34.280Z,99.90
2018-09-20T02:47:01.503Z,99.90
2018-09-20T02:49:28.699Z,99.90
2018-09-20T02:51:56.043Z,99.90
2018-09-20T02:54:23.348Z,99.90
2018-09-20T02:56:50.555Z,99.90
2018-09-20T02:59:17.817Z,99.90
2018-09-20T03:01:45.084Z,99.90
2018-09-20T03:04:12.305Z,99.90
2018-09-20T03:06:39.528Z,99.90
2018-09-20T03:09:07.760Z,99.90
2018-09-20T03:11:35.008Z,99.90
2018-09-20T03:14:02.200Z,99.90
2018-09-20T03:16:29.420Z,99.90
2018-09-20T03:18:56.655Z,99.90
2018-09-20T03:21:23.849Z,99.90
2018-09-20T03:23:51.114Z,99.90
2018-09-20T03:26:18.477Z,99.90
2018-09-20T03:28:45.664Z,99.90
2018-09-20T03:31:12.944Z,99.90
2018-09-20T03:33:40.132Z,99.90
2018-09-20T03:36:07.389Z,99.90
2018-09-20T03:38:34.754Z,99.90
2018-09-20T03:41:02.073Z,99.90
2018-09-20T03:43:29.280Z,99.90
2018-09-20T03:45:56.505Z,99.90
2018-09-20T03:48:23.706Z,99.90
2018-09-20T03:50:50.917Z,99.90
2018-09-20T03:53:18.108Z,99.90
2018-09-20T03:55:45.919Z,99.90
2018-09-20T03:58:13.116Z,99.90
2018-09-20T04:00:40.320Z,99.90
2018-09-20T04:03:07.521Z,99.90
2018-09-20T04:05:35.855Z,99.90
2018-09-20T04:08:03.084Z,99.90
2018-09-20T04:10:30.313Z,99.90
2018-09-20T04:12:57.561Z,99.90
2018-09-20T04:15:24.808Z,99.90
2018-09-20T04:17:52.001Z,99.90
2018-09-20T04:20:19.200Z,99.90
2018-09-20T04:22:46.424Z,99.90
2018-09-20T04:25:13.671Z,99.90
2018-09-20T04:27:40.911Z,99.90
2018-09-20T04:30:08.181Z,99.90
2018-09-20T04:32:35.408Z,99.90
2018-09-20T04:35:02.680Z,99.90
2018-09-20T04:37:29.941Z,99.90
2018-09-20T04:39:57.246Z,99.90
2018-09-20T04:42:24.461Z,99.90
2018-09-20T04:44:51.689Z,99.90
2018-09-20T04:47:18.988Z,99.90
2018-09-20T04:49:46.208Z,99.90
2018-09-20T04:52:13.437Z,99.90
2018-09-20T04:54:40.739Z,99.90
2018-09-20T04:57:08.239Z,99.90
2018-09-20T04:59:36.569Z,99.90
2018-09-20T05:02:03.802Z,99.90
2018-09-20T05:04:31.036Z,99.90
2018-09-20T05:06:58.272Z,99.90
2018-09-20T05:09:25.706Z,99.90
2018-09-20T05:11:52.924Z,99.90
2018-09-20T05:14:20.145Z,99.90
2018-09-20T05:16:47.349Z,99.90
2018-09-20T05:19:14.588Z,99.90
2018-09-20T05:21:41.813Z,99.90
2018-09-20T05:24:09.020Z,99.90
2018-09-20T05:26:36.256Z,99.90
2018-09-20T05:29:03.472Z,99.90
2018-09-20T05:31:31.697Z,99.90
2018-09-20T05:33:58.892Z,99.90
2018-09-20T05:36:26.128Z,99.90
2018-09-20T05:38:53.332Z,99.90
2018-09-20T05:41:20.528Z,99.90
2018-09-20T05:43:47.769Z,99.90
2018-09-20T05:46:14.968Z,99.90
2018-09-20T05:48:42.225Z,99.90
2018-09-20T05:51:09.597Z,99.90
2018-09-20T05:53:36.827Z,99.90
2018-09-20T05:56:04.023Z,99.90
2018-09-20T05:58:31.216Z,99.90
2018-09-20T06:01:00.065Z,99.90
2018-09-20T06:03:27.425Z,99.90
2018-09-20T06:05:54.794Z,99.90
2018-09-20T06:08:22.263Z,99.90
2018-09-20T06:10:49.663Z,99.90
2018-09-20T06:13:17.062Z,99.90
2018-09-20T06:15:44.398Z,99.90
2018-09-20T06:18:11.664Z,99.90
2018-09-20T06:20:38.895Z,99.90
2018-09-20T06:23:06.099Z,99.90
2018-09-20T06:25:34.956Z,99.90
2018-09-20T06:28:02.197Z,99.90
2018-09-20T06:30:29.437Z,99.90
2018-09-20T06:32:56.776Z,99.90
2018-09-20T06:35:24.109Z,99.90
2018-09-20T06:37:51.784Z,99.90
2018-09-20T06:40:19.488Z,99.90
2018-09-20T06:42:46.825Z,99.90
2018-09-20T06:45:14.276Z,99.90
2018-09-20T06:47:41.659Z,99.90
2018-09-20T06:50:08.964Z,99.90
2018-09-20T06:52:36.153Z,99.90
2018-09-20T06:55:03.472Z,99.90
2018-09-20T06:57:33.601Z,99.90
2018-09-20T07:00:01.386Z,99.90
2018-09-20T07:02:28.677Z,99.90
2018-09-20T07:04:56.062Z,99.90
2018-09-20T07:07:23.274Z,99.90
2018-09-20T07:09:50.488Z,99.90
2018-09-20T07:12:17.708Z,99.90
2018-09-20T07:14:44.984Z,99.90
2018-09-20T07:17:12.310Z,99.90
2018-09-20T07:19:39.540Z,99.90
2018-09-20T07:22:06.811Z,99.90
2018-09-20T07:24:34.140Z,99.90
2018-09-20T07:27:01.441Z,99.90
2018-09-20T07:29:28.662Z,99.90
2018-09-20T07:31:55.949Z,99.90
2018-09-20T07:34:23.272Z,99.90
2018-09-20T07:36:50.545Z,99.90
2018-09-20T07:39:17.793Z,99.90
2018-09-20T07:41:45.017Z,99.90
2018-09-20T07:44:12.348Z,99.90
2018-09-20T07:46:39.577Z,99.90
2018-09-20T07:49:06.796Z,99.90
2018-09-20T07:51:34.008Z,99.90
2018-09-20T07:54:01.324Z,99.90
2018-09-20T07:56:28.572Z,99.90
2018-09-20T07:58:55.821Z,99.90
2018-09-20T08:01:23.029Z,99.90
2018-09-20T08:03:50.280Z,99.90
2018-09-20T08:06:17.517Z,99.90
2018-09-20T08:08:44.744Z,99.90
2018-09-20T08:11:11.949Z,99.90
2018-09-20T08:13:39.316Z,99.90
2018-09-20T08:16:06.547Z,99.90
2018-09-20T08:18:33.800Z,99.90
2018-09-20T08:21:00.997Z,99.90
2018-09-20T08:23:28.288Z,99.90
2018-09-20T08:25:55.568Z,99.90
2018-09-20T08:28:22.776Z,99.90
2018-09-20T08:30:50.046Z,99.90
2018-09-20T08:33:17.268Z,99.90
2018-09-20T08:35:44.506Z,99.90
2018-09-20T08:38:11.849Z,99.90
2018-09-20T08:40:39.060Z,99.90
2018-09-20T08:43:06.325Z,99.90
2018-09-20T08:45:33.624Z,99.90
2018-09-20T08:48:00.828Z,99.90
2018-09-20T08:50:28.024Z,99.90
2018-09-20T08:52:55.233Z,99.90
2018-09-20T08:55:22.508Z,99.90
2018-09-20T08:57:50.700Z,99.90
2018-09-20T09:00:17.909Z,99.90
2018-09-20T09:02:45.113Z,99.90
2018-09-20T09:05:12.327Z,99.90
2018-09-20T09:07:39.649Z,99.90
2018-09-20T09:10:06.952Z,99.90
2018-09-20T09:12:34.221Z,99.90
2018-09-20T09:15:01.451Z,99.90
2018-09-20T09:17:28.680Z,99.90
2018-09-20T09:19:56.017Z,99.90
2018-09-20T09:22:23.226Z,99.90
2018-09-20T09:24:50.500Z,99.90
2018-09-20T09:27:17.756Z,99.90
2018-09-20T09:29:44.936Z,99.90
2018-09-20T09:32:12.220Z,99.90
2018-09-20T09:34:39.416Z,99.90
2018-09-20T09:37:06.958Z,99.90
2018-09-20T09:39:34.212Z,99.90
2018-09-20T09:42:01.487Z,99.90
2018-09-20T09:44:28.649Z,99.90
2018-09-20T09:46:55.849Z,99.90
2018-09-20T09:49:23.115Z,99.90
2018-09-20T09:51:50.336Z,99.90
2018-09-20T09:54:17.714Z,99.90
2018-09-20T09:56:44.971Z,99.90
2018-09-20T09:59:12.191Z,99.90
2018-09-20T10:01:39.487Z,99.90
2018-09-20T10:04:06.864Z,99.90
2018-09-20T10:06:34.060Z,99.90
2018-09-20T10:09:01.320Z,99.90
2018-09-20T10:11:28.681Z,99.90
2018-09-20T10:13:55.959Z,99.90
2018-09-20T10:16:23.117Z,99.90
2018-09-20T10:18:50.379Z,99.90
2018-09-20T10:21:18.612Z,99.90
2018-09-20T10:23:45.877Z,99.90
2018-09-20T10:26:13.074Z,99.90
2018-09-20T10:28:40.367Z,99.90
2018-09-20T10:31:07.624Z,99.90
2018-09-20T10:33:34.841Z,99.90
2018-09-20T10:36:02.115Z,99.90
2018-09-20T10:38:29.412Z,99.90
2018-09-20T10:40:56.605Z,99.90
2018-09-20T10:43:23.821Z,99.90
2018-09-20T10:45:51.032Z,99.90
2018-09-20T10:48:18.365Z,99.90
2018-09-20T10:50:45.569Z,99.90
2018-09-20T10:53:12.772Z,99.90
2018-09-20T10:55:40.032Z,99.90
2018-09-20T10:58:07.336Z,99.90
2018-09-20T11:00:34.580Z,99.90
2018-09-20T11:03:01.905Z,99.90
2018-09-20T11:05:29.098Z,99.90
2018-09-20T11:07:57.221Z,99.90
2018-09-20T11:10:24.424Z,99.90
2018-09-20T11:12:51.716Z,99.90
2018-09-20T11:15:18.933Z,99.90
2018-09-20T11:17:46.232Z,99.90
2018-09-20T11:20:13.430Z,99.90
2018-09-20T11:22:40.720Z,99.90
2018-09-20T11:25:07.936Z,99.90
2018-09-20T11:27:35.170Z,99.90
2018-09-20T11:30:02.431Z,99.90
2018-09-20T11:32:29.740Z,99.90
2018-09-20T11:34:56.929Z,97.60
2018-09-20T11:37:24.240Z,97.90
2018-09-20T11:39:51.460Z,99.90
2018-09-20T11:42:18.664Z,99.80
2018-09-20T11:44:45.860Z,98.80
2018-09-20T11:47:13.081Z,96.50
2018-09-20T11:49:40.308Z,95.80
2018-09-20T11:52:07.524Z,95.60
2018-09-20T11:54:34.768Z,94.90
2018-09-20T11:57:02.054Z,96.80
2018-09-20T11:59:29.269Z,95.70
2018-09-20T12:01:56.592Z,95.80
2018-09-20T12:04:23.733Z,96.00
2018-09-20T12:06:51.009Z,96.60
2018-09-20T12:09:18.288Z,95.00
2018-09-20T12:11:45.572Z,92.70
2018-09-20T12:14:12.799Z,93.60
2018-09-20T12:16:40.124Z,92.60
2018-09-20T12:19:07.303Z,93.10
2018-09-20T12:21:34.535Z,95.60
2018-09-20T12:24:01.737Z,94.20
2018-09-20T12:26:28.937Z,91.40
2018-09-20T12:28:56.144Z,91.60
2018-09-20T12:31:23.402Z,92.30
2018-09-20T12:33:50.615Z,92.70
2018-09-20T12:36:17.885Z,88.90
2018-09-20T12:38:45.252Z,90.50
2018-09-20T12:41:12.441Z,83.10
2018-09-20T12:43:39.680Z,83.10
2018-09-20T12:46:06.883Z,79.60
2018-09-20T12:48:34.101Z,78.60
2018-09-20T12:51:01.416Z,75.20
2018-09-20T12:53:28.714Z,73.50
2018-09-20T12:55:55.976Z,75.30
2018-09-20T12:58:29.327Z,71.40
2018-09-20T13:00:56.620Z,71.40
2018-09-20T13:03:23.836Z,70.80
2018-09-20T13:05:51.041Z,70.90
2018-09-20T13:08:18.288Z,74.50
2018-09-20T13:10:45.497Z,72.00
2018-09-20T13:13:12.706Z,69.00
2018-09-20T13:15:39.930Z,69.40
2018-09-20T13:18:07.227Z,63.00
2018-09-20T13:20:34.601Z,61.20
2018-09-20T13:23:01.894Z,62.70
2018-09-20T13:25:29.861Z,62.10
2018-09-20T13:27:57.061Z,60.30
2018-09-20T13:30:24.332Z,58.60
2018-09-20T13:32:51.620Z,60.40
2018-09-20T13:35:18.893Z,57.90
2018-09-20T13:37:46.160Z,60.80
2018-09-20T13:40:13.535Z,60.00
2018-09-20T13:42:40.892Z,61.50
2018-09-20T13:45:08.229Z,60.90
2018-09-20T13:47:35.441Z,54.90
2018-09-20T13:50:02.695Z,56.70
2018-09-20T13:52:30.024Z,55.50
2018-09-20T13:54:57.363Z,54.80
2018-09-20T13:57:24.631Z,56.90
2018-09-20T13:59:51.874Z,56.50
2018-09-20T14:02:19.230Z,58.90
2018-09-20T14:04:46.628Z,57.10
2018-09-20T14:07:13.828Z,57.30
2018-09-20T14:09:41.160Z,60.40
2018-09-20T14:12:08.460Z,56.30
2018-09-20T14:14:35.685Z,55.60
2018-09-20T14:17:02.917Z,56.00
2018-09-20T14:19:30.295Z,56.10
2018-09-20T14:21:57.732Z,53.80
2018-09-20T14:24:25.030Z,54.30
2018-09-20T14:26:52.223Z,54.10
2018-09-20T14:29:19.476Z,55.10
2018-09-20T14:31:47.527Z,54.80
2018-09-20T14:34:14.823Z,55.90
2018-09-20T14:36:42.187Z,54.40
2018-09-20T14:39:10.408Z,55.60
2018-09-20T14:41:37.828Z,55.80
2018-09-20T14:44:05.052Z,54.30
2018-09-20T14:46:32.271Z,55.10
2018-09-20T14:48:59.560Z,54.10
2018-09-20T14:51:27.927Z,54.80
2018-09-20T14:53:55.233Z,54.50
2018-09-20T14:56:22.436Z,53.60
2018-09-20T14:58:50.049Z,54.80
2018-09-20T15:01:17.340Z,53.30
2018-09-20T15:03:46.020Z,55.20
2018-09-20T15:06:13.290Z,53.40
2018-09-20T15:08:40.661Z,54.60
2018-09-20T15:11:07.860Z,55.40
2018-09-20T15:13:35.143Z,52.80
2018-09-20T15:16:02.539Z,53.80
2018-09-20T15:18:29.864Z,52.40
2018-09-20T15:20:57.074Z,51.70
2018-09-20T15:23:24.363Z,52.30
2018-09-20T15:25:51.579Z,51.40
2018-09-20T15:28:18.893Z,52.90
2018-09-20T15:30:46.253Z,52.50
2018-09-20T15:33:13.488Z,52.60
2018-09-20T15:35:40.777Z,52.70
2018-09-20T15:38:07.981Z,52.90
2018-09-20T15:40:35.300Z,52.60
2018-09-20T15:43:02.588Z,52.70
2018-09-20T15:45:29.799Z,51.60
2018-09-20T15:47:57.101Z,51.50
2018-09-20T15:50:24.352Z,51.30
2018-09-20T15:52:51.644Z,51.20
2018-09-20T15:55:18.860Z,50.80
2018-09-20T15:57:46.080Z,51.50
2018-09-20T16:00:13.500Z,50.70
2018-09-20T16:02:40.802Z,51.00
2018-09-20T16:05:08.033Z,52.00
2018-09-20T16:07:35.340Z,52.80
2018-09-20T16:10:02.562Z,51.50
2018-09-20T16:12:29.871Z,52.20
2018-09-20T16:14:57.343Z,51.00
2018-09-20T16:17:24.613Z,51.80
2018-09-20T16:19:51.818Z,51.60
2018-09-20T16:22:19.084Z,51.50
2018-09-20T16:24:46.344Z,51.60
2018-09-20T16:27:13.669Z,51.60
2018-09-20T16:30:21.680Z,51.70
2018-09-20T16:33:02.692Z,52.10
2018-09-20T16:35:54.559Z,52.10
2018-09-20T16:38:30.746Z,52.60
2018-09-20T16:40:59.662Z,52.40
2018-09-20T16:43:26.975Z,53.10
2018-09-20T16:45:54.219Z,54.40
2018-09-20T16:48:21.408Z,55.40
2018-09-20T16:50:48.688Z,57.70
2018-09-20T16:53:16.192Z,58.80
2018-09-20T16:55:43.404Z,60.40
2018-09-20T16:58:10.652Z,62.70
2018-09-20T17:00:37.851Z,66.20
2018-09-20T17:03:05.295Z,66.60
2018-09-20T17:05:32.524Z,73.30
2018-09-20T17:07:59.705Z,75.60
2018-09-20T17:10:26.937Z,78.70
2018-09-20T17:12:54.157Z,82.10
2018-09-20T17:15:21.409Z,85.90
2018-09-20T17:17:48.617Z,89.30
2018-09-20T17:20:15.809Z,90.40
2018-09-20T17:22:43.436Z,92.60
2018-09-20T17:25:10.792Z,95.30
2018-09-20T17:27:38.021Z,97.10
2018-09-20T17:30:05.645Z,99.30
2018-09-20T17:32:32.899Z,99.90
2018-09-20T17:35:00.219Z,99.90
2018-09-20T17:37:28.843Z,99.90
2018-09-20T17:39:57.143Z,99.90
2018-09-20T17:42:25.849Z,99.90
2018-09-20T17:44:53.076Z,99.90
2018-09-20T17:47:20.348Z,99.90
2018-09-20T17:49:47.524Z,99.90
2018-09-20T17:52:15.941Z,99.90
2018-09-20T17:54:43.777Z,99.90
2018-09-20T17:57:11.671Z,99.90
2018-09-20T17:59:38.870Z,99.90
2018-09-20T18:02:06.098Z,99.90
2018-09-20T18:04:33.296Z,99.90
2018-09-20T18:07:02.684Z,99.90
2018-09-20T18:09:30.371Z,99.90
2018-09-20T18:11:57.828Z,99.90
2018-09-20T18:14:25.098Z,99.90
2018-09-20T18:16:52.544Z,99.90
2018-09-20T18:19:19.853Z,99.90
2018-09-20T18:21:47.100Z,99.90
2018-09-20T18:24:14.352Z,99.90
2018-09-20T18:26:41.624Z,99.90
2018-09-20T18:29:08.916Z,99.90
2018-09-20T18:31:36.148Z,99.90
2018-09-20T18:34:03.402Z,99.90
2018-09-20T18:36:30.692Z,99.90
2018-09-20T18:38:58.052Z,99.90
2018-09-20T18:41:25.696Z,99.90
2018-09-20T18:43:52.904Z,99.90
2018-09-20T18:46:20.203Z,99.90
2018-09-20T18:48:47.528Z,99.90
2018-09-20T18:51:15.012Z,99.90
2018-09-20T18:53:42.313Z,99.90
2018-09-20T18:56:09.600Z,99.90
2018-09-20T18:58:37.844Z,99.90
2018-09-20T19:01:05.354Z,99.90
2018-09-20T19:03:32.533Z,99.90
2018-09-20T19:05:59.801Z,99.90
2018-09-20T19:08:27.244Z,99.90
2018-09-20T19:10:54.593Z,99.90
2018-09-20T19:13:21.856Z,99.90
2018-09-20T19:15:49.224Z,99.90
2018-09-20T19:18:16.490Z,99.90
2018-09-20T19:20:43.744Z,99.90
2018-09-20T19:23:11.004Z,99.90
2018-09-20T19:25:38.376Z,99.90
2018-09-20T19:28:05.703Z,99.90
2018-09-20T19:30:33.169Z,99.90
2018-09-20T19:33:01.561Z,99.90
2018-09-20T19:35:29.000Z,99.90
2018-09-20T19:37:56.221Z,99.90
2018-09-20T19:40:23.461Z,99.90
2018-09-20T19:42:50.680Z,99.90
2018-09-20T19:45:17.884Z,99.90
2018-09-20T19:47:45.102Z,99.90
2018-09-20T19:50:12.392Z,99.90
2018-09-20T19:52:39.717Z,99.90
2018-09-20T19:55:07.044Z,99.90
2018-09-20T19:57:34.357Z,99.90
2018-09-20T20:00:01.844Z,99.90
2018-09-20T20:02:29.245Z,99.90
2018-09-20T20:04:56.568Z,99.90
2018-09-20T20:07:23.784Z,99.90
2018-09-20T20:09:50.999Z,99.90
2018-09-20T20:12:19.316Z,99.90
2018-09-20T20:14:46.589Z,99.90
2018-09-20T20:17:13.928Z,99.90
2018-09-20T20:19:41.242Z,99.90
2018-09-20T20:22:08.490Z,99.90
2018-09-20T20:24:35.912Z,99.90
2018-09-20T20:27:03.204Z,99.90
2018-09-20T20:29:30.492Z,99.90
2018-09-20T20:31:57.767Z,99.90
2018-09-20T20:34:24.962Z,99.90
2018-09-20T20:36:52.192Z,99.90
2018-09-20T20:39:19.464Z,99.90
2018-09-20T20:41:46.764Z,99.90
2018-09-20T20:44:14.028Z,99.90
2018-09-20T20:46:41.331Z,99.90
2018-09-20T20:49:08.657Z,99.90
2018-09-20T20:51:35.841Z,99.90
2018-09-20T20:54:03.084Z,99.90
2018-09-20T20:56:30.272Z,99.90
2018-09-20T20:58:57.717Z,99.90
2018-09-20T21:01:24.949Z,99.90
2018-09-20T21:03:52.329Z,99.90
2018-09-20T21:06:19.636Z,99.90
2018-09-20T21:08:47.379Z,99.90
2018-09-20T21:11:14.820Z,99.90
2018-09-20T21:13:42.034Z,99.90
2018-09-20T21:16:51.443Z,99.90
2018-09-20T21:19:18.773Z,99.90
2018-09-20T21:21:46.052Z,99.90
2018-09-20T21:24:13.288Z,99.90
2018-09-20T21:26:40.629Z,99.90
2018-09-20T21:29:07.990Z,99.90
2018-09-20T21:31:35.275Z,99.90
2018-09-20T21:34:02.496Z,99.90
2018-09-20T21:36:36.716Z,99.90
2018-09-20T21:39:07.279Z,99.90
2018-09-20T21:41:34.980Z,99.90
2018-09-20T21:44:02.244Z,99.90
2018-09-20T21:46:29.586Z,99.90
2018-09-20T21:48:56.944Z,99.90
2018-09-20T21:51:25.107Z,99.90
2018-09-20T21:53:52.481Z,99.90
2018-09-20T21:56:19.714Z,99.90
2018-09-20T21:58:47.058Z,99.90
2018-09-20T22:01:14.352Z,99.90
2018-09-20T22:03:41.644Z,99.90
2018-09-20T22:06:09.172Z,99.90
2018-09-20T22:08:36.444Z,99.90
2018-09-20T22:11:03.718Z,99.90
2018-09-20T22:13:31.029Z,99.90
2018-09-20T22:15:58.357Z,99.90
2018-09-20T22:18:25.696Z,99.90
2018-09-20T22:20:52.919Z,99.90
2018-09-20T22:23:20.200Z,99.90
2018-09-20T22:25:47.492Z,99.90
2018-09-20T22:28:14.672Z,99.90
2018-09-20T22:30:41.988Z,99.90
2018-09-20T22:33:09.217Z,99.90
2018-09-20T22:35:36.613Z,99.90
2018-09-20T22:38:03.864Z,99.90
2018-09-20T22:40:31.119Z,99.90
2018-09-20T22:42:58.313Z,99.90
2018-09-20T22:45:25.532Z,99.90
2018-09-20T22:47:52.762Z,99.90
2018-09-20T22:50:19.989Z,99.90
2018-09-20T22:52:47.220Z,99.90
2018-09-20T22:55:14.461Z,99.90
2018-09-20T22:57:41.656Z,99.90
2018-09-20T23:00:08.916Z,99.90
2018-09-20T23:02:36.132Z,99.90
2018-09-20T23:05:03.407Z,99.90
2018-09-20T23:07:30.624Z,99.90
2018-09-20T23:09:58.028Z,99.90
2018-09-20T23:12:25.232Z,99.90
2018-09-20T23:14:52.473Z,99.90
2018-09-20T23:17:19.711Z,99.90
2018-09-20T23:19:46.992Z,99.90
2018-09-20T23:22:14.192Z,99.90
2018-09-20T23:24:41.405Z,99.90
2018-09-20T23:27:08.608Z,99.90
2018-09-20T23:29:35.804Z,99.90
2018-09-20T23:32:03.016Z,99.90
2018-09-20T23:34:30.249Z,99.90
2018-09-20T23:36:57.537Z,99.90
2018-09-20T23:39:24.748Z,99.90
2018-09-20T23:41:51.957Z,99.90
2018-09-20T23:44:19.709Z,99.90
2018-09-20T23:46:46.947Z,99.90
2018-09-20T23:49:14.139Z,99.90
2018-09-20T23:51:41.348Z,99.90
2018-09-20T23:54:08.608Z,99.90
2018-09-20T23:56:35.811Z,99.90
2018-09-20T23:59:03.080Z,99.90
